sensor_id;sensor_type;location;lat;lon;timestamp;pressure;altitude;pressure_sealevel;temperature;humidity
51297;BME280;37380;45.186;9.792;2023-03-23T00:00:16;100884.69;;;10.30;100.00
51297;BME280;37380;45.186;9.792;2023-03-23T00:02:42;100949.03;;;10.07;100.00
51297;BME280;37380;45.186;9.792;2023-03-23T00:05:09;100897.91;;;9.91;100.00
51297;BME280;37380;45.186;9.792;2023-03-23T00:07:35;100927.19;;;10.05;100.00
51297;BME280;37380;45.186;9.792;2023-03-23T00:10:02;100957.88;;;10.32;100.00
51297;BME280;37380;45.186;9.792;2023-03-23T00:12:30;100924.41;;;10.01;100.00
51297;BME280;37380;45.186;9.792;2023-03-23T00:15:04;100973.63;;;10.33;100.00
51297;BME280;37380;45.186;9.792;2023-03-23T00:17:31;100979.13;;;10.41;100.00
51297;BME280;37380;45.186;9.792;2023-03-23T00:20:00;100965.38;;;10.03;100.00
51297;BME280;37380;45.186;9.792;2023-03-23T00:22:28;100982.38;;;10.14;100.00
51297;BME280;37380;45.186;9.792;2023-03-23T00:24:54;100969.13;;;9.68;100.00
51297;BME280;37380;45.186;9.792;2023-03-23T00:27:22;100970.97;;;9.91;100.00
51297;BME280;37380;45.186;9.792;2023-03-23T00:29:50;100986.34;;;10.05;100.00
51297;BME280;37380;45.186;9.792;2023-03-23T00:32:20;100989.19;;;10.11;100.00
51297;BME280;37380;45.186;9.792;2023-03-23T00:34:53;100891.94;;;9.73;100.00
51297;BME280;37380;45.186;9.792;2023-03-23T00:37:28;100935.38;;;10.14;100.00
51297;BME280;37380;45.186;9.792;2023-03-23T00:40:28;100982.34;;;10.34;100.00
51297;BME280;37380;45.186;9.792;2023-03-23T00:43:21;100988.47;;;10.15;100.00
51297;BME280;37380;45.186;9.792;2023-03-23T00:45:50;100960.34;;;10.08;100.00
51297;BME280;37380;45.186;9.792;2023-03-23T00:48:19;100941.63;;;9.97;100.00
51297;BME280;37380;45.186;9.792;2023-03-23T00:50:51;100979.75;;;10.14;100.00
51297;BME280;37380;45.186;9.792;2023-03-23T00:53:45;100977.78;;;10.09;100.00
51297;BME280;37380;45.186;9.792;2023-03-23T00:56:11;100912.00;;;9.95;100.00
51297;BME280;37380;45.186;9.792;2023-03-23T00:58:38;100957.06;;;10.33;100.00
51297;BME280;37380;45.186;9.792;2023-03-23T01:01:04;100959.31;;;10.46;100.00
51297;BME280;37380;45.186;9.792;2023-03-23T01:03:30;100915.00;;;10.27;100.00
51297;BME280;37380;45.186;9.792;2023-03-23T01:06:06;100951.31;;;10.41;100.00
51297;BME280;37380;45.186;9.792;2023-03-23T01:08:34;100947.53;;;10.57;100.00
51297;BME280;37380;45.186;9.792;2023-03-23T01:11:04;100897.38;;;10.21;100.00
51297;BME280;37380;45.186;9.792;2023-03-23T01:13:31;100899.72;;;10.15;100.00
51297;BME280;37380;45.186;9.792;2023-03-23T01:15:57;100963.03;;;10.53;100.00
51297;BME280;37380;45.186;9.792;2023-03-23T01:18:23;100954.84;;;10.43;100.00
51297;BME280;37380;45.186;9.792;2023-03-23T01:20:55;100917.50;;;10.03;100.00
51297;BME280;37380;45.186;9.792;2023-03-23T01:23:48;100942.41;;;9.73;100.00
51297;BME280;37380;45.186;9.792;2023-03-23T01:26:25;100941.91;;;9.61;100.00
51297;BME280;37380;45.186;9.792;2023-03-23T01:28:51;100960.00;;;9.78;100.00
51297;BME280;37380;45.186;9.792;2023-03-23T01:31:21;100951.88;;;9.71;100.00
51297;BME280;37380;45.186;9.792;2023-03-23T01:33:47;100959.06;;;9.56;100.00
51297;BME280;37380;45.186;9.792;2023-03-23T01:36:26;100955.09;;;9.45;100.00
51297;BME280;37380;45.186;9.792;2023-03-23T01:39:20;100925.84;;;9.31;100.00
51297;BME280;37380;45.186;9.792;2023-03-23T01:41:46;100951.69;;;9.46;100.00
51297;BME280;37380;45.186;9.792;2023-03-23T01:46:57;100866.50;;;8.85;100.00
51297;BME280;37380;45.186;9.792;2023-03-23T01:49:33;100881.56;;;8.92;100.00
51297;BME280;37380;45.186;9.792;2023-03-23T01:52:14;100900.25;;;9.22;100.00
51297;BME280;37380;45.186;9.792;2023-03-23T01:55:17;100924.53;;;9.21;100.00
51297;BME280;37380;45.186;9.792;2023-03-23T01:58:11;100937.25;;;9.14;100.00
51297;BME280;37380;45.186;9.792;2023-03-23T02:00:38;100928.53;;;8.94;100.00
51297;BME280;37380;45.186;9.792;2023-03-23T02:03:06;100850.09;;;8.49;100.00
51297;BME280;37380;45.186;9.792;2023-03-23T02:05:38;100928.06;;;8.83;100.00
51297;BME280;37380;45.186;9.792;2023-03-23T02:08:11;100940.88;;;8.98;100.00
51297;BME280;37380;45.186;9.792;2023-03-23T02:10:41;100909.06;;;8.86;100.00
51297;BME280;37380;45.186;9.792;2023-03-23T02:13:09;100910.16;;;8.71;100.00
51297;BME280;37380;45.186;9.792;2023-03-23T02:24:57;100925.81;;;8.91;100.00
51297;BME280;37380;45.186;9.792;2023-03-23T02:33:39;100935.13;;;8.86;100.00
51297;BME280;37380;45.186;9.792;2023-03-23T02:36:23;100930.59;;;9.01;100.00
51297;BME280;37380;45.186;9.792;2023-03-23T02:41:54;100927.22;;;9.03;100.00
51297;BME280;37380;45.186;9.792;2023-03-23T02:44:23;100926.34;;;9.03;100.00
51297;BME280;37380;45.186;9.792;2023-03-23T02:46:59;100886.63;;;8.89;100.00
51297;BME280;37380;45.186;9.792;2023-03-23T02:49:55;100926.34;;;9.03;100.00
51297;BME280;37380;45.186;9.792;2023-03-23T02:52:30;100904.56;;;8.81;100.00
51297;BME280;37380;45.186;9.792;2023-03-23T02:55:26;100922.44;;;8.93;100.00
51297;BME280;37380;45.186;9.792;2023-03-23T02:57:54;100935.53;;;8.95;100.00
51297;BME280;37380;45.186;9.792;2023-03-23T03:00:21;100919.88;;;8.95;100.00
51297;BME280;37380;45.186;9.792;2023-03-23T03:02:49;100924.97;;;8.92;100.00
51297;BME280;37380;45.186;9.792;2023-03-23T03:05:38;100933.47;;;8.88;100.00
51297;BME280;37380;45.186;9.792;2023-03-23T03:08:24;100929.91;;;8.86;100.00
51297;BME280;37380;45.186;9.792;2023-03-23T03:11:09;100935.41;;;8.92;100.00
51297;BME280;37380;45.186;9.792;2023-03-23T03:21:16;100885.03;;;8.93;100.00
51297;BME280;37380;45.186;9.792;2023-03-23T03:23:45;100905.91;;;8.73;100.00
51297;BME280;37380;45.186;9.792;2023-03-23T03:26:16;100907.78;;;8.76;100.00
51297;BME280;37380;45.186;9.792;2023-03-23T03:28:52;100931.00;;;8.91;100.00
51297;BME280;37380;45.186;9.792;2023-03-23T03:31:26;100927.16;;;8.82;100.00
51297;BME280;37380;45.186;9.792;2023-03-23T03:33:54;100919.75;;;8.92;100.00
51297;BME280;37380;45.186;9.792;2023-03-23T03:36:32;100927.16;;;8.82;100.00
51297;BME280;37380;45.186;9.792;2023-03-23T03:39:36;100933.53;;;8.89;100.00
51297;BME280;37380;45.186;9.792;2023-03-23T03:42:29;100937.03;;;8.90;100.00
51297;BME280;37380;45.186;9.792;2023-03-23T03:44:57;100931.59;;;9.04;100.00
51297;BME280;37380;45.186;9.792;2023-03-23T03:47:23;100879.97;;;8.57;100.00
51297;BME280;37380;45.186;9.792;2023-03-23T03:49:49;100950.69;;;9.03;100.00
51297;BME280;37380;45.186;9.792;2023-03-23T03:52:21;100952.81;;;9.32;100.00
51297;BME280;37380;45.186;9.792;2023-03-23T03:55:14;100914.13;;;8.82;100.00
51297;BME280;37380;45.186;9.792;2023-03-23T03:57:45;100921.41;;;8.90;100.00
51297;BME280;37380;45.186;9.792;2023-03-23T04:00:33;100947.91;;;8.99;100.00
51297;BME280;37380;45.186;9.792;2023-03-23T04:03:38;100912.97;;;8.95;100.00
51297;BME280;37380;45.186;9.792;2023-03-23T04:06:45;100934.81;;;9.18;100.00
51297;BME280;37380;45.186;9.792;2023-03-23T04:09:39;100924.28;;;8.96;100.00
51297;BME280;37380;45.186;9.792;2023-03-23T04:12:05;100927.44;;;8.89;100.00
51297;BME280;37380;45.186;9.792;2023-03-23T04:14:50;100893.41;;;8.66;100.00
51297;BME280;37380;45.186;9.792;2023-03-23T04:17:16;100945.41;;;8.82;100.00
51297;BME280;37380;45.186;9.792;2023-03-23T04:19:43;100938.75;;;8.70;100.00
51297;BME280;37380;45.186;9.792;2023-03-23T04:22:10;100940.53;;;8.71;100.00
51297;BME280;37380;45.186;9.792;2023-03-23T04:24:37;100936.94;;;8.69;100.00
51297;BME280;37380;45.186;9.792;2023-03-23T04:27:06;100909.88;;;8.65;100.00
51297;BME280;37380;45.186;9.792;2023-03-23T04:29:33;100936.22;;;8.71;100.00
51297;BME280;37380;45.186;9.792;2023-03-23T04:32:18;100965.97;;;8.96;100.00
51297;BME280;37380;45.186;9.792;2023-03-23T04:34:49;100973.97;;;8.81;100.00
51297;BME280;37380;45.186;9.792;2023-03-23T04:37:34;100945.78;;;8.53;100.00
51297;BME280;37380;45.186;9.792;2023-03-23T04:40:23;100972.41;;;8.65;100.00
51297;BME280;37380;45.186;9.792;2023-03-23T04:43:01;100929.75;;;8.44;100.00
51297;BME280;37380;45.186;9.792;2023-03-23T04:45:41;100967.81;;;8.42;100.00
51297;BME280;37380;45.186;9.792;2023-03-23T04:48:13;100970.31;;;8.58;100.00
51297;BME280;37380;45.186;9.792;2023-03-23T04:51:05;100943.31;;;8.38;100.00
51297;BME280;37380;45.186;9.792;2023-03-23T04:54:06;100962.91;;;8.48;100.00
51297;BME280;37380;45.186;9.792;2023-03-23T04:57:01;100986.44;;;8.69;100.00
51297;BME280;37380;45.186;9.792;2023-03-23T04:59:27;100982.56;;;8.41;100.00
51297;BME280;37380;45.186;9.792;2023-03-23T05:02:04;100959.88;;;8.38;100.00
51297;BME280;37380;45.186;9.792;2023-03-23T05:04:30;100933.00;;;8.04;100.00
51297;BME280;37380;45.186;9.792;2023-03-23T05:07:07;100991.44;;;8.28;100.00
51297;BME280;37380;45.186;9.792;2023-03-23T05:09:41;100933.66;;;8.00;100.00
51297;BME280;37380;45.186;9.792;2023-03-23T05:12:09;100984.47;;;8.09;100.00
51297;BME280;37380;45.186;9.792;2023-03-23T05:14:47;100968.25;;;7.97;100.00
51297;BME280;37380;45.186;9.792;2023-03-23T05:17:16;100987.22;;;8.12;100.00
51297;BME280;37380;45.186;9.792;2023-03-23T05:19:46;100975.38;;;8.19;100.00
51297;BME280;37380;45.186;9.792;2023-03-23T05:22:31;100953.00;;;8.05;100.00
51297;BME280;37380;45.186;9.792;2023-03-23T05:25:02;101011.25;;;8.43;100.00
51297;BME280;37380;45.186;9.792;2023-03-23T05:27:31;100984.22;;;8.23;100.00
51297;BME280;37380;45.186;9.792;2023-03-23T05:30:03;100983.84;;;8.33;100.00
51297;BME280;37380;45.186;9.792;2023-03-23T05:32:32;100979.16;;;8.26;100.00
51297;BME280;37380;45.186;9.792;2023-03-23T05:35:09;100974.47;;;8.36;100.00
51297;BME280;37380;45.186;9.792;2023-03-23T05:37:41;100993.84;;;8.42;100.00
51297;BME280;37380;45.186;9.792;2023-03-23T05:40:27;100980.28;;;8.49;100.00
51297;BME280;37380;45.186;9.792;2023-03-23T05:43:02;100999.56;;;8.70;100.00
51297;BME280;37380;45.186;9.792;2023-03-23T05:45:42;100994.72;;;8.60;100.00
51297;BME280;37380;45.186;9.792;2023-03-23T05:48:07;100993.91;;;8.43;100.00
51297;BME280;37380;45.186;9.792;2023-03-23T05:50:41;100975.84;;;8.64;100.00
51297;BME280;37380;45.186;9.792;2023-03-23T05:53:29;101006.78;;;8.95;100.00
51297;BME280;37380;45.186;9.792;2023-03-23T05:55:59;100990.06;;;9.10;100.00
51297;BME280;37380;45.186;9.792;2023-03-23T05:58:49;101020.53;;;9.30;100.00
51297;BME280;37380;45.186;9.792;2023-03-23T06:01:21;100996.44;;;8.97;100.00
51297;BME280;37380;45.186;9.792;2023-03-23T06:04:21;101013.13;;;9.20;100.00
51297;BME280;37380;45.186;9.792;2023-03-23T06:07:28;101030.81;;;9.66;100.00
51297;BME280;37380;45.186;9.792;2023-03-23T06:10:01;101024.22;;;9.95;100.00
51297;BME280;37380;45.186;9.792;2023-03-23T06:12:39;100972.06;;;9.75;100.00
51297;BME280;37380;45.186;9.792;2023-03-23T06:15:39;101004.31;;;10.39;100.00
51297;BME280;37380;45.186;9.792;2023-03-23T06:18:45;101007.28;;;10.48;100.00
51297;BME280;37380;45.186;9.792;2023-03-23T06:21:19;101022.03;;;10.91;100.00
51297;BME280;37380;45.186;9.792;2023-03-23T06:23:50;101013.59;;;11.22;100.00
51297;BME280;37380;45.186;9.792;2023-03-23T06:26:30;100996.22;;;11.98;100.00
51297;BME280;37380;45.186;9.792;2023-03-23T06:29:26;100999.09;;;12.06;100.00
51297;BME280;37380;45.186;9.792;2023-03-23T06:31:57;100992.78;;;12.53;100.00
51297;BME280;37380;45.186;9.792;2023-03-23T06:34:26;101048.75;;;13.71;100.00
51297;BME280;37380;45.186;9.792;2023-03-23T06:37:17;101035.56;;;14.73;100.00
51297;BME280;37380;45.186;9.792;2023-03-23T06:40:30;101009.97;;;15.06;100.00
51297;BME280;37380;45.186;9.792;2023-03-23T06:43:24;101042.44;;;15.92;98.44
51297;BME280;37380;45.186;9.792;2023-03-23T06:45:58;101028.28;;;15.43;100.00
51297;BME280;37380;45.186;9.792;2023-03-23T06:48:24;101012.88;;;15.62;100.00
51297;BME280;37380;45.186;9.792;2023-03-23T06:50:56;101038.13;;;16.48;99.86
51297;BME280;37380;45.186;9.792;2023-03-23T06:54:02;101006.03;;;16.77;96.51
51297;BME280;37380;45.186;9.792;2023-03-23T06:56:55;101041.53;;;16.43;100.00
51297;BME280;37380;45.186;9.792;2023-03-23T06:59:22;101009.84;;;15.88;100.00
51297;BME280;37380;45.186;9.792;2023-03-23T07:01:48;101037.78;;;15.34;100.00
51297;BME280;37380;45.186;9.792;2023-03-23T07:04:14;101038.34;;;15.20;100.00
51297;BME280;37380;45.186;9.792;2023-03-23T07:06:56;101040.75;;;15.51;100.00
51297;BME280;37380;45.186;9.792;2023-03-23T07:09:22;101021.78;;;15.68;99.82
51297;BME280;37380;45.186;9.792;2023-03-23T07:11:49;101009.38;;;15.20;100.00
51297;BME280;37380;45.186;9.792;2023-03-23T07:14:29;101011.78;;;14.68;100.00
51297;BME280;37380;45.186;9.792;2023-03-23T07:16:55;101048.31;;;15.34;100.00
51297;BME280;37380;45.186;9.792;2023-03-23T07:19:22;100998.69;;;15.10;100.00
51297;BME280;37380;45.186;9.792;2023-03-23T07:21:48;101036.19;;;15.43;100.00
51297;BME280;37380;45.186;9.792;2023-03-23T07:24:15;101056.50;;;15.48;100.00
51297;BME280;37380;45.186;9.792;2023-03-23T07:26:55;101019.72;;;15.10;100.00
51297;BME280;37380;45.186;9.792;2023-03-23T07:29:21;101029.72;;;14.86;100.00
51297;BME280;37380;45.186;9.792;2023-03-23T07:31:56;100903.50;;;14.10;100.00
51297;BME280;37380;45.186;9.792;2023-03-23T07:34:22;101023.66;;;13.82;100.00
51297;BME280;37380;45.186;9.792;2023-03-23T07:37:08;101053.69;;;13.92;100.00
51297;BME280;37380;45.186;9.792;2023-03-23T07:40:03;101033.75;;;12.78;100.00
51297;BME280;37380;45.186;9.792;2023-03-23T07:43:07;101068.53;;;13.58;100.00
51297;BME280;37380;45.186;9.792;2023-03-23T07:45:53;101048.50;;;13.95;100.00
51297;BME280;37380;45.186;9.792;2023-03-23T07:48:21;101011.75;;;13.64;100.00
51297;BME280;37380;45.186;9.792;2023-03-23T07:50:54;101068.47;;;13.89;100.00
51297;BME280;37380;45.186;9.792;2023-03-23T07:53:48;101028.94;;;13.51;100.00
51297;BME280;37380;45.186;9.792;2023-03-23T07:56:34;101045.31;;;13.42;100.00
51297;BME280;37380;45.186;9.792;2023-03-23T07:59:13;100977.78;;;13.06;100.00
51297;BME280;37380;45.186;9.792;2023-03-23T08:01:41;101051.69;;;13.52;100.00
51297;BME280;37380;45.186;9.792;2023-03-23T08:04:26;101062.13;;;13.80;100.00
51297;BME280;37380;45.186;9.792;2023-03-23T08:07:11;101072.09;;;14.27;100.00
51297;BME280;37380;45.186;9.792;2023-03-23T08:09:47;101052.78;;;13.92;100.00
51297;BME280;37380;45.186;9.792;2023-03-23T08:12:29;101046.75;;;13.94;100.00
51297;BME280;37380;45.186;9.792;2023-03-23T08:15:31;101030.91;;;13.59;100.00
51297;BME280;37380;45.186;9.792;2023-03-23T08:18:37;101058.81;;;13.88;100.00
51297;BME280;37380;45.186;9.792;2023-03-23T08:21:24;100991.38;;;13.87;100.00
51297;BME280;37380;45.186;9.792;2023-03-23T08:24:12;101019.03;;;14.07;100.00
51297;BME280;37380;45.186;9.792;2023-03-23T08:27:00;101079.84;;;14.21;100.00
51297;BME280;37380;45.186;9.792;2023-03-23T08:29:45;101081.19;;;14.40;100.00
51297;BME280;37380;45.186;9.792;2023-03-23T08:32:30;101066.91;;;14.30;100.00
51297;BME280;37380;45.186;9.792;2023-03-23T08:35:28;100975.81;;;14.31;100.00
51297;BME280;37380;45.186;9.792;2023-03-23T08:38:39;101082.81;;;15.07;100.00
51297;BME280;37380;45.186;9.792;2023-03-23T08:41:55;101093.94;;;15.35;100.00
51297;BME280;37380;45.186;9.792;2023-03-23T08:44:41;101045.88;;;15.03;100.00
51297;BME280;37380;45.186;9.792;2023-03-23T08:47:26;101102.72;;;15.35;100.00
51297;BME280;37380;45.186;9.792;2023-03-23T08:49:52;101097.63;;;15.84;98.70
51297;BME280;37380;45.186;9.792;2023-03-23T08:52:58;101060.03;;;15.50;96.82
51297;BME280;37380;45.186;9.792;2023-03-23T08:56:07;101090.31;;;17.27;88.09
51297;BME280;37380;45.186;9.792;2023-03-23T08:59:12;101102.09;;;16.90;88.53
51297;BME280;37380;45.186;9.792;2023-03-23T09:02:18;101118.91;;;18.38;85.27
51297;BME280;37380;45.186;9.792;2023-03-23T09:05:04;101112.44;;;17.35;80.92
51297;BME280;37380;45.186;9.792;2023-03-23T09:08:01;101087.91;;;17.42;80.56
51297;BME280;37380;45.186;9.792;2023-03-23T09:10:29;101094.53;;;17.13;81.71
51297;BME280;37380;45.186;9.792;2023-03-23T09:12:56;101070.84;;;17.17;78.95
51297;BME280;37380;45.186;9.792;2023-03-23T09:15:23;101117.72;;;17.34;76.28
51297;BME280;37380;45.186;9.792;2023-03-23T09:17:50;101117.47;;;17.17;76.01
51297;BME280;37380;45.186;9.792;2023-03-23T09:20:20;101133.94;;;17.01;76.07
51297;BME280;37380;45.186;9.792;2023-03-23T09:22:48;101119.78;;;17.58;73.65
51297;BME280;37380;45.186;9.792;2023-03-23T09:25:25;101069.16;;;17.96;72.25
51297;BME280;37380;45.186;9.792;2023-03-23T09:28:20;101128.66;;;17.63;77.89
51297;BME280;37380;45.186;9.792;2023-03-23T09:30:46;101121.69;;;17.04;80.05
51297;BME280;37380;45.186;9.792;2023-03-23T09:33:14;101122.28;;;17.46;78.38
51297;BME280;37380;45.186;9.792;2023-03-23T09:35:40;101084.84;;;16.56;84.81
51297;BME280;37380;45.186;9.792;2023-03-23T09:38:08;101057.84;;;16.19;85.42
51297;BME280;37380;45.186;9.792;2023-03-23T09:44:22;101113.22;;;16.72;85.54
51297;BME280;37380;45.186;9.792;2023-03-23T09:48:00;101108.88;;;17.32;82.84
51297;BME280;37380;45.186;9.792;2023-03-23T09:50:37;101081.94;;;16.95;84.62
51297;BME280;37380;45.186;9.792;2023-03-23T09:53:38;101090.66;;;16.89;85.65
51297;BME280;37380;45.186;9.792;2023-03-23T09:56:11;101112.16;;;17.15;84.83
51297;BME280;37380;45.186;9.792;2023-03-23T10:04:32;101107.34;;;16.85;86.04
51297;BME280;37380;45.186;9.792;2023-03-23T10:07:08;101094.72;;;17.95;78.50
51297;BME280;37380;45.186;9.792;2023-03-23T10:09:35;101066.84;;;16.30;88.80
51297;BME280;37380;45.186;9.792;2023-03-23T10:12:07;101104.41;;;17.28;85.16
51297;BME280;37380;45.186;9.792;2023-03-23T10:17:27;101088.03;;;16.36;89.42
51297;BME280;37380;45.186;9.792;2023-03-23T10:22:31;101098.03;;;16.57;90.77
51297;BME280;37380;45.186;9.792;2023-03-23T10:30:45;101079.44;;;16.46;88.38
51297;BME280;37380;45.186;9.792;2023-03-23T10:35:53;101073.72;;;16.22;88.38
51297;BME280;37380;45.186;9.792;2023-03-23T10:38:33;101086.44;;;17.01;85.59
51297;BME280;37380;45.186;9.792;2023-03-23T10:41:27;101056.03;;;16.15;87.79
51297;BME280;37380;45.186;9.792;2023-03-23T10:43:53;101084.28;;;17.36;84.54
51297;BME280;37380;45.186;9.792;2023-03-23T10:48:53;101069.66;;;16.41;88.38
51297;BME280;37380;45.186;9.792;2023-03-23T10:51:32;101068.50;;;16.25;91.36
51297;BME280;37380;45.186;9.792;2023-03-23T10:54:39;101050.41;;;15.96;91.60
51297;BME280;37380;45.186;9.792;2023-03-23T10:57:34;101072.41;;;16.47;88.22
51297;BME280;37380;45.186;9.792;2023-03-23T11:00:19;101095.09;;;16.92;83.88
51297;BME280;37380;45.186;9.792;2023-03-23T11:05:52;101080.25;;;17.67;79.01
51297;BME280;37380;45.186;9.792;2023-03-23T11:08:22;101071.31;;;17.56;78.78
51297;BME280;37380;45.186;9.792;2023-03-23T11:13:17;101017.56;;;16.84;82.68
51297;BME280;37380;45.186;9.792;2023-03-23T11:15:46;101047.94;;;17.18;81.41
51297;BME280;37380;45.186;9.792;2023-03-23T11:18:25;101070.16;;;18.07;76.94
51297;BME280;37380;45.186;9.792;2023-03-23T11:21:26;100983.06;;;18.31;73.79
51297;BME280;37380;45.186;9.792;2023-03-23T11:24:28;101046.16;;;17.88;75.33
51297;BME280;37380;45.186;9.792;2023-03-23T11:27:05;101061.97;;;18.80;74.23
51297;BME280;37380;45.186;9.792;2023-03-23T11:29:33;101059.41;;;17.90;78.00
51297;BME280;37380;45.186;9.792;2023-03-23T11:34:40;101051.47;;;17.92;76.87
51297;BME280;37380;45.186;9.792;2023-03-23T11:37:10;101036.78;;;18.23;76.82
51297;BME280;37380;45.186;9.792;2023-03-23T11:39:57;101043.41;;;18.78;73.51
51297;BME280;37380;45.186;9.792;2023-03-23T11:43:22;101047.72;;;18.66;70.65
51297;BME280;37380;45.186;9.792;2023-03-23T11:46:05;101046.25;;;19.14;70.37
51297;BME280;37380;45.186;9.792;2023-03-23T11:51:49;101017.16;;;19.18;69.71
51297;BME280;37380;45.186;9.792;2023-03-23T11:54:57;101001.03;;;18.75;67.66
51297;BME280;37380;45.186;9.792;2023-03-23T11:57:28;101040.00;;;18.95;67.74
51297;BME280;37380;45.186;9.792;2023-03-23T11:59:56;101023.09;;;18.74;69.62
51297;BME280;37380;45.186;9.792;2023-03-23T12:06:05;101020.47;;;18.74;70.99
51297;BME280;37380;45.186;9.792;2023-03-23T12:22:28;100999.41;;;19.02;72.78
51297;BME280;37380;45.186;9.792;2023-03-23T12:28:06;100990.78;;;19.52;60.53
51297;BME280;37380;45.186;9.792;2023-03-23T12:42:03;100974.06;;;20.41;51.42
51297;BME280;37380;45.186;9.792;2023-03-23T12:44:46;100974.97;;;20.23;52.54
51297;BME280;37380;45.186;9.792;2023-03-23T12:50:32;100954.56;;;19.47;54.52
51297;BME280;37380;45.186;9.792;2023-03-23T12:53:55;100969.66;;;20.26;56.23
51297;BME280;37380;45.186;9.792;2023-03-23T13:05:06;100924.50;;;20.47;54.92
51297;BME280;37380;45.186;9.792;2023-03-23T13:07:47;100907.78;;;19.96;53.43
51297;BME280;37380;45.186;9.792;2023-03-23T13:10:29;100950.19;;;19.78;56.25
51297;BME280;37380;45.186;9.792;2023-03-23T13:13:50;100939.59;;;20.25;56.27
51297;BME280;37380;45.186;9.792;2023-03-23T13:22:37;100923.63;;;19.56;54.47
51297;BME280;37380;45.186;9.792;2023-03-23T13:25:15;100908.66;;;19.97;57.09
51297;BME280;37380;45.186;9.792;2023-03-23T13:27:41;100909.53;;;20.08;55.82
51297;BME280;37380;45.186;9.792;2023-03-23T13:30:19;100916.56;;;19.44;56.06
51297;BME280;37380;45.186;9.792;2023-03-23T13:32:51;100901.53;;;19.45;56.73
51297;BME280;37380;45.186;9.792;2023-03-23T13:35:19;100871.44;;;19.05;55.70
51297;BME280;37380;45.186;9.792;2023-03-23T13:37:51;100905.13;;;19.75;55.67
51297;BME280;37380;45.186;9.792;2023-03-23T13:40:30;100903.34;;;19.49;57.26
51297;BME280;37380;45.186;9.792;2023-03-23T13:43:33;100869.72;;;19.39;56.59
51297;BME280;37380;45.186;9.792;2023-03-23T13:46:33;100892.75;;;19.71;56.28
51297;BME280;37380;45.186;9.792;2023-03-23T13:49:45;100870.63;;;20.11;58.27
51297;BME280;37380;45.186;9.792;2023-03-23T13:52:52;100832.66;;;19.40;55.33
51297;BME280;37380;45.186;9.792;2023-03-23T13:56:17;100873.28;;;19.59;56.12
51297;BME280;37380;45.186;9.792;2023-03-23T13:59:16;100852.97;;;19.38;57.15
51297;BME280;37380;45.186;9.792;2023-03-23T14:06:01;100868.88;;;20.13;56.50
51297;BME280;37380;45.186;9.792;2023-03-23T14:11:13;100869.69;;;20.34;58.33
51297;BME280;37380;45.186;9.792;2023-03-23T14:13:45;100870.53;;;20.47;54.30
51297;BME280;37380;45.186;9.792;2023-03-23T14:16:43;100851.13;;;20.31;56.69
51297;BME280;37380;45.186;9.792;2023-03-23T14:19:27;100827.28;;;20.25;56.87
51297;BME280;37380;45.186;9.792;2023-03-23T14:22:40;100849.44;;;20.02;59.61
51297;BME280;37380;45.186;9.792;2023-03-23T14:25:17;100806.16;;;19.85;59.86
51297;BME280;37380;45.186;9.792;2023-03-23T14:27:44;100846.78;;;19.96;59.34
51297;BME280;37380;45.186;9.792;2023-03-23T14:30:16;100830.88;;;19.95;59.24
51297;BME280;37380;45.186;9.792;2023-03-23T14:32:43;100824.69;;;19.91;58.97
51297;BME280;37380;45.186;9.792;2023-03-23T14:35:21;100833.44;;;20.27;59.02
51297;BME280;37380;45.186;9.792;2023-03-23T14:37:48;100835.16;;;20.43;59.10
51297;BME280;37380;45.186;9.792;2023-03-23T14:40:21;100817.47;;;20.41;62.22
51297;BME280;37380;45.186;9.792;2023-03-23T14:43:20;100798.97;;;20.18;60.71
51297;BME280;37380;45.186;9.792;2023-03-23T14:45:56;100845.81;;;20.34;60.41
51297;BME280;37380;45.186;9.792;2023-03-23T14:49:07;100797.22;;;20.12;61.05
51297;BME280;37380;45.186;9.792;2023-03-23T14:55:18;100807.91;;;19.72;63.07
51297;BME280;37380;45.186;9.792;2023-03-23T14:57:51;100853.84;;;20.08;62.07
51297;BME280;37380;45.186;9.792;2023-03-23T15:00:58;100852.97;;;19.92;61.13
51297;BME280;37380;45.186;9.792;2023-03-23T15:03:26;100778.75;;;19.64;61.64
51297;BME280;37380;45.186;9.792;2023-03-23T15:05:56;100825.59;;;19.82;60.91
51297;BME280;37380;45.186;9.792;2023-03-23T15:08:34;100805.25;;;19.86;61.07
51297;BME280;37380;45.186;9.792;2023-03-23T15:11:34;100833.47;;;20.10;60.02
51297;BME280;37380;45.186;9.792;2023-03-23T15:14:20;100811.34;;;20.28;60.50
51297;BME280;37380;45.186;9.792;2023-03-23T15:17:19;100824.63;;;20.22;63.02
51297;BME280;37380;45.186;9.792;2023-03-23T15:19:55;100843.22;;;20.17;59.54
51297;BME280;37380;45.186;9.792;2023-03-23T15:22:49;100839.63;;;20.24;63.20
51297;BME280;37380;45.186;9.792;2023-03-23T15:27:50;100840.50;;;20.34;61.34
51297;BME280;37380;45.186;9.792;2023-03-23T15:32:59;100792.84;;;20.00;64.63
51297;BME280;37380;45.186;9.792;2023-03-23T15:35:26;100842.25;;;20.41;61.44
51297;BME280;37380;45.186;9.792;2023-03-23T15:37:58;100823.78;;;19.98;60.77
51297;BME280;37380;45.186;9.792;2023-03-23T15:40:26;100807.88;;;19.92;60.29
51297;BME280;37380;45.186;9.792;2023-03-23T15:43:35;100842.28;;;20.33;60.18
51297;BME280;37380;45.186;9.792;2023-03-23T15:51:20;100830.81;;;20.15;60.02
51297;BME280;37380;45.186;9.792;2023-03-23T15:54:15;100826.34;;;20.32;61.59
51297;BME280;37380;45.186;9.792;2023-03-23T15:57:10;100834.31;;;20.35;63.09
51297;BME280;37380;45.186;9.792;2023-03-23T15:59:43;100819.31;;;20.25;61.22
51297;BME280;37380;45.186;9.792;2023-03-23T16:03:01;100828.16;;;20.21;61.85
51297;BME280;37380;45.186;9.792;2023-03-23T16:05:37;100813.16;;;20.09;62.75
51297;BME280;37380;45.186;9.792;2023-03-23T16:08:31;100821.97;;;20.16;62.58